CN-0075 weather

Meixian Air Base
Guangdong Province, China

Public forecast

Using degrees Celsius for public forecast. Weather courtesy of forecast.io.

METAR (pilot weather report)

Report is more than 6 hours old.

Closest report is Meixian Airport, 5.4 nm (10.0 km) NNE. Retrieved 2014/09/08 14:00 UTC (5 years ago):

ZGMX 081400Z 20002MPS CAVOK 27/25 Q1008 NOSIG

TAF (pilot weather forecast)

Closest forecast is Jieyang Chaoshan International Airport, 48.2 nm (89.3 km) SSE. Retrieved 2019/05/27 12:03 UTC (1 hour ago):

TAF ZGOW 270904Z 2712/2812 19003MPS 6000 FEW020 SCT040 TX32/2806Z TN24/2722Z TEMPO 2720/2724 3500 -RA BR TEMPO 2804/2810 VRB08G14MPS 2100 TSRA SCT011 SCT026CB BKN030